Time;durP1;ratioP1;P1;durP2;ratioP2;P2;SDS_P1;SDS_P2;PMS_P1;PMS_P2;Temp;Humidity;BMP_temperature;BMP_pressure;BME280_temperature;BME280_humidity;BME280_pressure;Samples;Min_cycle;Max_cycle;Signal;HPM_P1;HPM_P2
2021/08/24 01:30:56;;;;;;;5.57;3.38;;;18.10;99.90;;;;;;4837868;28;20047;-81
2021/08/24 01:34:07;;;;;;;7.60;3.85;;;18.00;99.90;;;;;;5068295;28;20031;-80
2021/08/24 01:36:44;;;;;;;5.90;3.50;;;18.00;99.90;;;;;;5031573;28;20041;-80
2021/08/24 01:39:34;;;;;;;6.03;3.33;;;18.00;99.90;;;;;;5081515;28;20033;-81
2021/08/24 01:42:17;;;;;;;7.28;3.55;;;18.00;99.90;;;;;;5063496;28;20032;-80
2021/08/24 01:45:08;;;;;;;7.32;3.45;;;18.00;99.90;;;;;;5081375;28;20031;-81
2021/08/24 01:47:45;;;;;;;8.00;3.70;;;18.00;99.90;;;;;;5081374;28;20090;-81
2021/08/24 01:50:29;;;;;;;5.90;3.95;;;18.00;99.90;;;;;;5082127;28;20028;-80
2021/08/24 01:53:12;;;;;;;8.80;3.67;;;18.00;99.90;;;;;;5081514;28;20021;-80
2021/08/24 01:55:44;;;;;;;8.82;3.55;;;18.00;99.90;;;;;;5081611;28;20051;-80
2021/08/24 01:58:19;;;;;;;7.05;3.45;;;18.00;99.90;;;;;;5063591;28;20056;-81
2021/08/24 02:00:50;;;;;;;6.70;3.55;;;18.00;99.90;;;;;;5080979;28;20320;-80
2021/08/24 02:03:21;;;;;;;7.07;3.55;;;18.00;99.90;;;;;;5081462;28;20031;-81
2021/08/24 02:05:54;;;;;;;5.97;3.55;;;18.00;99.90;;;;;;5080972;28;20032;-80
2021/08/24 02:08:26;;;;;;;6.60;3.33;;;17.90;99.90;;;;;;5067435;28;20017;-80
2021/08/24 02:10:56;;;;;;;8.68;3.70;;;17.90;99.90;;;;;;5081418;28;20035;-80
2021/08/24 02:13:27;;;;;;;6.32;3.85;;;17.90;99.90;;;;;;5081004;28;20232;-81
2021/08/24 02:15:57;;;;;;;6.03;3.70;;;17.90;99.90;;;;;;5081251;28;20032;-81
2021/08/24 02:18:30;;;;;;;6.60;3.70;;;17.80;99.90;;;;;;5080712;28;20016;-80
2021/08/24 02:21:03;;;;;;;6.38;4.15;;;17.70;99.90;;;;;;5080201;28;20028;-81
2021/08/24 02:23:31;;;;;;;7.68;4.13;;;17.80;99.90;;;;;;5080659;28;20115;-81
2021/08/24 02:26:01;;;;;;;7.13;4.07;;;17.80;99.90;;;;;;5080952;28;20032;-80
2021/08/24 02:28:43;;;;;;;8.48;4.28;;;17.80;99.90;;;;;;5080799;28;20096;-81
2021/08/24 02:31:33;;;;;;;12.32;4.20;;;17.80;99.90;;;;;;5081218;28;20097;-81
2021/08/24 02:34:20;;;;;;;10.85;4.25;;;17.80;99.90;;;;;;5077404;28;20013;-81
2021/08/24 02:36:59;;;;;;;9.55;4.32;;;17.80;99.90;;;;;;5072989;28;20319;-81
2021/08/24 02:39:50;;;;;;;8.05;4.35;;;17.80;99.90;;;;;;5080571;28;20090;-81
2021/08/24 02:42:22;;;;;;;8.65;4.80;;;17.80;99.90;;;;;;5080419;28;20028;-81
2021/08/24 02:45:07;;;;;;;7.43;3.95;;;17.70;99.90;;;;;;5080505;28;20087;-81
2021/08/24 02:47:34;;;;;;;6.47;5.05;;;17.70;99.90;;;;;;5080531;28;20043;-80
2021/08/24 02:50:02;;;;;;;11.43;4.57;;;17.60;99.90;;;;;;5062459;28;20055;-81
2021/08/24 02:52:27;;;;;;;8.95;4.93;;;17.60;99.90;;;;;;5080666;28;20008;-80
2021/08/24 02:54:53;;;;;;;9.80;4.65;;;17.50;99.90;;;;;;5080299;28;20025;-81
2021/08/24 02:57:19;;;;;;;8.82;4.50;;;17.50;99.90;;;;;;5080302;28;20020;-81
2021/08/24 02:59:44;;;;;;;8.45;4.85;;;17.50;99.90;;;;;;5079679;28;20017;-80
2021/08/24 03:02:12;;;;;;;6.78;4.78;;;17.50;99.90;;;;;;5080383;28;20024;-80
2021/08/24 03:04:38;;;;;;;7.70;4.68;;;17.60;99.90;;;;;;5080734;28;20024;-80
2021/08/24 03:07:08;;;;;;;9.02;4.90;;;17.60;99.90;;;;;;5080462;28;20220;-80
2021/08/24 03:09:36;;;;;;;7.82;5.30;;;17.50;99.90;;;;;;5079726;28;20599;-80
2021/08/24 03:12:25;;;;;;;7.78;4.80;;;17.50;99.90;;;;;;5080032;28;20133;-80
2021/08/24 03:14:59;;;;;;;9.00;4.65;;;17.50;99.90;;;;;;5079951;28;20186;-80
2021/08/24 03:17:33;;;;;;;9.63;4.82;;;17.60;99.90;;;;;;5079927;28;20025;-81
2021/08/24 03:20:01;;;;;;;8.30;4.65;;;17.60;99.90;;;;;;5079663;28;20282;-80
2021/08/24 03:22:28;;;;;;;9.55;5.13;;;17.70;99.90;;;;;;5062349;28;20035;-80
2021/08/24 03:24:54;;;;;;;8.93;4.63;;;17.70;99.90;;;;;;5079762;28;20032;-80
2021/08/24 03:27:21;;;;;;;8.98;4.78;;;17.70;99.90;;;;;;5079829;28;20063;-80
2021/08/24 03:30:03;;;;;;;11.60;5.03;;;17.70;99.90;;;;;;5080331;28;20386;-80
2021/08/24 03:32:29;;;;;;;6.35;4.75;;;17.70;99.90;;;;;;5082745;28;20024;-80
2021/08/24 03:34:55;;;;;;;6.28;4.63;;;17.60;99.90;;;;;;5083879;28;20374;-80
2021/08/24 03:37:20;;;;;;;6.72;5.18;;;17.70;99.90;;;;;;5084359;28;20101;-80
2021/08/24 03:39:46;;;;;;;9.25;5.30;;;17.70;99.90;;;;;;5066192;28;20029;-80
2021/08/24 03:42:12;;;;;;;6.88;4.70;;;17.70;99.90;;;;;;5083815;28;20032;-80
2021/08/24 03:44:38;;;;;;;10.57;5.13;;;17.70;99.90;;;;;;5083797;28;20016;-80
2021/08/24 03:47:03;;;;;;;7.53;4.88;;;17.70;99.90;;;;;;5065678;28;20039;-80
2021/08/24 03:49:29;;;;;;;8.85;5.55;;;17.70;99.90;;;;;;5084013;28;20062;-80
2021/08/24 03:51:55;;;;;;;8.38;5.30;;;17.70;99.90;;;;;;5083628;28;20088;-81
2021/08/24 03:54:20;;;;;;;9.13;5.57;;;17.70;99.90;;;;;;5083225;28;20024;-80
2021/08/24 03:56:46;;;;;;;12.15;5.80;;;17.70;99.90;;;;;;5083979;28;20235;-80
2021/08/24 03:59:12;;;;;;;6.90;5.30;;;17.70;99.90;;;;;;5082942;28;20050;-80
2021/08/24 04:01:37;;;;;;;11.63;5.32;;;17.60;99.90;;;;;;5082966;28;20085;-80
2021/08/24 04:04:03;;;;;;;12.45;6.25;;;17.70;99.90;;;;;;5083648;28;20131;-80
2021/08/24 04:06:31;;;;;;;9.18;5.82;;;17.60;99.90;;;;;;5084107;28;20254;-80
2021/08/24 04:08:57;;;;;;;14.80;6.18;;;17.60;99.90;;;;;;5083176;28;20028;-81
2021/08/24 04:11:24;;;;;;;9.73;6.22;;;17.60;99.90;;;;;;5082879;28;20373;-80
2021/08/24 04:13:49;;;;;;;11.40;6.00;;;17.60;99.90;;;;;;5083207;28;20025;-80
2021/08/24 04:16:15;;;;;;;8.35;5.68;;;17.60;99.90;;;;;;5050782;28;20021;-80
2021/08/24 04:18:41;;;;;;;11.10;6.05;;;17.60;99.90;;;;;;5077108;28;20013;-81
2021/08/24 04:21:16;;;;;;;12.82;6.65;;;17.70;99.90;;;;;;5076172;28;20277;-81
2021/08/24 04:23:44;;;;;;;11.57;6.03;;;17.70;99.90;;;;;;5076968;28;20058;-81
2021/08/24 04:26:10;;;;;;;12.43;6.68;;;17.70;99.90;;;;;;5075578;28;20282;-80
2021/08/24 04:28:36;;;;;;;16.08;6.75;;;17.70;99.90;;;;;;5082674;28;20248;-81
2021/08/24 04:31:08;;;;;;;8.52;6.30;;;17.70;99.90;;;;;;5082848;28;20081;-80
2021/08/24 04:33:34;;;;;;;16.05;6.68;;;17.80;99.90;;;;;;5079949;28;20029;-80
2021/08/24 04:36:00;;;;;;;8.63;5.82;;;17.80;99.90;;;;;;5072846;28;20020;-82
2021/08/24 04:38:27;;;;;;;11.52;6.65;;;17.90;99.90;;;;;;5082734;28;20315;-81
2021/08/24 04:40:53;;;;;;;9.65;6.07;;;17.90;99.90;;;;;;5068657;28;20016;-80
2021/08/24 04:43:19;;;;;;;11.18;6.28;;;17.90;99.90;;;;;;5082564;28;20370;-80
2021/08/24 04:45:45;;;;;;;13.57;7.05;;;17.90;99.90;;;;;;5082790;28;20028;-80
2021/08/24 04:48:11;;;;;;;9.32;6.00;;;17.90;99.90;;;;;;5082984;28;20248;-80
2021/08/24 04:50:37;;;;;;;12.95;6.35;;;18.00;99.90;;;;;;5082531;28;20371;-80
2021/08/24 04:53:03;;;;;;;11.18;6.53;;;18.00;99.90;;;;;;5064959;28;20016;-80
2021/08/24 04:55:29;;;;;;;11.35;5.97;;;18.00;99.90;;;;;;5083215;28;20055;-80
2021/08/24 04:57:56;;;;;;;11.95;6.13;;;18.10;99.90;;;;;;5082571;28;20016;-80
2021/08/24 05:00:22;;;;;;;11.65;6.30;;;18.20;99.90;;;;;;5083038;28;20023;-81
2021/08/24 05:02:47;;;;;;;15.02;7.18;;;18.20;99.90;;;;;;5082626;28;20020;-81
2021/08/24 05:05:13;;;;;;;10.35;6.30;;;18.20;99.90;;;;;;5082383;28;20063;-81
2021/08/24 05:07:39;;;;;;;10.88;6.68;;;18.20;99.90;;;;;;5050339;28;20017;-81
2021/08/24 05:10:07;;;;;;;11.90;6.50;;;18.30;99.90;;;;;;5068326;28;20082;-81
2021/08/24 05:12:32;;;;;;;14.25;6.00;;;18.20;99.90;;;;;;5082623;28;20008;-81
2021/08/24 05:14:58;;;;;;;12.60;6.30;;;18.20;99.90;;;;;;5082312;28;20084;-82
2021/08/24 05:17:24;;;;;;;13.82;7.00;;;18.10;99.90;;;;;;5082687;28;20315;-82
2021/08/24 05:19:49;;;;;;;11.43;6.28;;;18.00;99.90;;;;;;5050093;28;20340;-81
2021/08/24 05:22:15;;;;;;;13.68;6.82;;;17.90;99.90;;;;;;5082732;28;20029;-81
2021/08/24 05:24:41;;;;;;;9.82;6.32;;;17.80;99.90;;;;;;5071433;28;20103;-82
2021/08/24 05:27:07;;;;;;;13.40;6.47;;;17.80;99.90;;;;;;5070786;28;20019;-82
2021/08/24 05:29:33;;;;;;;11.95;6.43;;;17.70;99.90;;;;;;5067645;28;20051;-82
2021/08/24 05:31:59;;;;;;;14.13;6.68;;;17.70;99.90;;;;;;5070634;28;20021;-82
2021/08/24 05:34:24;;;;;;;12.32;7.22;;;17.70;99.90;;;;;;5070834;28;20103;-82
2021/08/24 05:36:50;;;;;;;8.70;6.03;;;17.70;99.90;;;;;;5071378;28;20020;-82
2021/08/24 05:39:16;;;;;;;8.90;6.35;;;17.60;99.90;;;;;;5071023;28;20016;-82
2021/08/24 05:41:41;;;;;;;11.43;6.53;;;17.60;99.90;;;;;;5071571;28;20031;-82
2021/08/24 05:44:08;;;;;;;13.93;6.97;;;17.60;99.90;;;;;;5051576;28;20095;-82
2021/08/24 05:46:33;;;;;;;14.35;6.60;;;17.40;99.90;;;;;;5071852;28;20036;-82
2021/08/24 05:48:59;;;;;;;12.68;6.55;;;17.40;99.90;;;;;;5080512;28;20030;-82
2021/08/24 05:51:25;;;;;;;13.90;6.57;;;17.40;99.90;;;;;;5067402;28;20404;-82
2021/08/24 05:53:52;;;;;;;11.25;5.93;;;17.40;99.90;;;;;;5074331;28;20024;-81
2021/08/24 05:56:21;;;;;;;13.50;6.63;;;17.50;99.90;;;;;;5072325;28;20481;-82
2021/08/24 05:58:49;;;;;;;11.80;5.93;;;17.50;99.90;;;;;;5070878;28;20028;-82
2021/08/24 06:01:31;;;;;;;11.70;6.25;;;17.50;99.90;;;;;;5039035;28;20032;-81
2021/08/24 06:03:58;;;;;;;10.23;6.30;;;17.50;99.90;;;;;;5073491;28;20165;-81
2021/08/24 06:06:32;;;;;;;12.10;6.18;;;17.40;99.90;;;;;;5070826;28;20017;-82
2021/08/24 06:09:01;;;;;;;11.25;6.60;;;17.40;99.90;;;;;;5070988;28;20024;-82
2021/08/24 06:11:33;;;;;;;13.05;6.25;;;17.40;99.90;;;;;;5052445;28;20460;-81
2021/08/24 06:14:02;;;;;;;15.48;6.00;;;17.40;99.90;;;;;;5070113;28;20515;-82
2021/08/24 06:16:28;;;;;;;17.08;6.32;;;17.50;99.90;;;;;;5070607;28;20044;-82
2021/08/24 06:18:53;;;;;;;15.25;5.90;;;17.60;99.90;;;;;;5059377;28;20024;-83
2021/08/24 06:21:20;;;;;;;11.63;6.35;;;17.60;99.90;;;;;;5046276;28;20047;-82
2021/08/24 06:23:47;;;;;;;11.98;5.72;;;17.60;99.90;;;;;;5069108;28;20099;-82
2021/08/24 06:26:12;;;;;;;12.20;5.63;;;17.60;99.90;;;;;;5069896;28;20024;-82
2021/08/24 06:28:38;;;;;;;12.88;6.40;;;17.70;99.90;;;;;;5070863;28;20507;-82
2021/08/24 06:31:05;;;;;;;14.25;6.82;;;17.70;99.90;;;;;;5069681;28;20091;-82
2021/08/24 06:33:36;;;;;;;14.82;6.72;;;17.70;99.90;;;;;;5070107;28;20145;-82
2021/08/24 06:36:03;;;;;;;12.80;6.75;;;17.60;99.90;;;;;;5069075;28;20028;-75
2021/08/24 06:38:31;;;;;;;12.25;6.70;;;17.70;99.90;;;;;;5062753;28;20404;-75
2021/08/24 06:40:57;;;;;;;10.70;6.70;;;17.70;99.90;;;;;;5067211;28;20029;-75
2021/08/24 06:43:23;;;;;;;11.82;6.57;;;17.80;99.90;;;;;;5069942;28;20217;-76
2021/08/24 06:45:49;;;;;;;14.60;6.47;;;17.90;99.90;;;;;;5072124;28;20438;-76
2021/08/24 06:48:14;;;;;;;11.95;6.15;;;17.90;99.90;;;;;;5070441;28;20424;-75
2021/08/24 06:50:40;;;;;;;16.55;7.40;;;17.90;99.90;;;;;;5069614;28;20029;-75
2021/08/24 06:53:06;;;;;;;12.18;6.70;;;17.90;99.90;;;;;;5072831;28;20013;-75
2021/08/24 06:55:32;;;;;;;13.02;6.50;;;17.90;99.90;;;;;;5070907;28;20034;-72
2021/08/24 06:57:59;;;;;;;14.35;6.80;;;18.00;99.90;;;;;;5068863;28;20017;-75
2021/08/24 07:00:27;;;;;;;12.45;6.68;;;18.00;99.90;;;;;;5070112;28;20085;-75
2021/08/24 07:02:55;;;;;;;19.05;6.78;;;18.00;99.90;;;;;;5069556;28;20117;-75
2021/08/24 07:05:23;;;;;;;10.73;6.70;;;18.00;99.90;;;;;;5070060;28;20025;-76
2021/08/24 07:07:49;;;;;;;13.15;7.22;;;18.20;99.90;;;;;;5069113;28;20099;-76
2021/08/24 07:10:17;;;;;;;13.82;7.10;;;18.30;99.90;;;;;;5069051;28;20544;-76
2021/08/24 07:12:43;;;;;;;13.63;6.65;;;18.30;99.90;;;;;;5069278;28;20035;-75
2021/08/24 07:15:10;;;;;;;11.30;6.28;;;18.30;99.90;;;;;;5069607;28;20017;-75
2021/08/24 07:17:36;;;;;;;14.70;7.38;;;18.40;99.90;;;;;;5070317;28;20056;-76
2021/08/24 07:20:11;;;;;;;14.27;7.47;;;18.40;99.90;;;;;;5069124;28;20219;-75
2021/08/24 07:22:36;;;;;;;;;;;18.40;99.90;;;;;;5069671;28;20103;-75
2021/08/24 07:25:04;;;;;;;10.23;6.88;;;18.40;99.90;;;;;;5069317;28;19912;-75
2021/08/24 07:27:30;;;;;;;16.15;7.57;;;18.50;99.90;;;;;;5069746;28;20024;-75
2021/08/24 07:29:56;;;;;;;11.35;7.45;;;18.60;99.90;;;;;;5068129;28;20044;-75
2021/08/24 07:32:21;;;;;;;11.52;7.07;;;18.80;99.90;;;;;;5070516;28;20095;-75
2021/08/24 07:34:47;;;;;;;13.52;7.03;;;19.00;99.90;;;;;;5043865;28;20432;-75
2021/08/24 07:37:13;;;;;;;12.85;7.22;;;19.10;99.90;;;;;;5068254;28;20059;-75
2021/08/24 07:39:38;;;;;;;12.25;6.35;;;19.10;99.90;;;;;;5068524;28;20025;-75
2021/08/24 07:42:04;;;;;;;14.07;7.13;;;19.20;99.90;;;;;;5068603;28;20066;-75
2021/08/24 07:44:33;;;;;;;13.43;6.80;;;19.30;99.90;;;;;;5068229;28;20107;-75
2021/08/24 07:47:01;;;;;;;12.10;6.72;;;19.40;99.90;;;;;;5068630;28;20028;-75
2021/08/24 07:49:27;;;;;;;10.52;6.63;;;19.40;99.90;;;;;;5063970;28;20501;-76
2021/08/24 07:51:56;;;;;;;15.32;7.30;;;19.50;99.90;;;;;;5065206;28;20028;-78
2021/08/24 07:54:22;;;;;;;11.10;6.70;;;19.50;99.90;;;;;;5067913;28;20385;-76
2021/08/24 07:56:48;;;;;;;9.95;6.47;;;19.60;99.90;;;;;;5048532;28;20074;-76
2021/08/24 07:59:14;;;;;;;10.23;6.85;;;19.70;99.90;;;;;;5068077;28;20021;-76
2021/08/24 08:01:39;;;;;;;14.38;7.60;;;19.80;99.90;;;;;;5066553;28;20021;-75
2021/08/24 08:04:05;;;;;;;11.18;6.63;;;19.80;99.90;;;;;;5067777;28;20028;-77
2021/08/24 08:06:31;;;;;;;12.00;6.65;;;19.80;99.90;;;;;;5068210;28;20021;-76
2021/08/24 08:08:56;;;;;;;11.40;6.38;;;19.90;99.90;;;;;;5068248;28;20519;-76
2021/08/24 08:11:23;;;;;;;10.60;6.18;;;20.00;99.90;;;;;;5068431;28;20090;-76
2021/08/24 08:13:48;;;;;;;10.93;6.68;;;20.10;99.90;;;;;;5068646;28;20024;-84
2021/08/24 08:16:14;;;;;;;11.10;6.35;;;20.30;99.90;;;;;;5068521;28;20033;-84
2021/08/24 08:18:40;;;;;;;11.13;6.53;;;20.40;99.90;;;;;;5071258;28;20626;-84
2021/08/24 08:21:06;;;;;;;12.27;6.57;;;20.50;99.90;;;;;;5072019;28;20677;-83
2021/08/24 08:23:32;;;;;;;9.57;6.05;;;20.60;99.90;;;;;;5071744;28;20023;-83
2021/08/24 08:25:57;;;;;;;13.02;6.80;;;20.60;99.90;;;;;;5071315;28;20020;-84
2021/08/24 08:28:23;;;;;;;9.25;5.68;;;20.50;99.90;;;;;;5071352;28;20013;-84
2021/08/24 08:30:49;;;;;;;10.48;5.57;;;20.70;99.90;;;;;;5071142;28;20049;-84
2021/08/24 08:33:15;;;;;;;10.45;5.97;;;20.80;99.90;;;;;;5044601;28;20024;-84
2021/08/24 08:35:41;;;;;;;9.38;6.38;;;20.90;99.90;;;;;;5071904;28;20060;-84
2021/08/24 08:38:08;;;;;;;8.95;6.00;;;21.10;99.90;;;;;;5071648;28;20481;-84
2021/08/24 08:40:53;;;;;;;10.15;5.95;;;21.30;99.90;;;;;;5071625;28;20115;-83
2021/08/24 08:43:46;;;;;;;12.48;6.40;;;21.60;99.90;;;;;;5072080;28;20368;-83
2021/08/24 08:46:47;;;;;;;12.23;6.63;;;21.70;99.90;;;;;;5071717;28;20059;-83
2021/08/24 08:49:24;;;;;;;11.00;5.70;;;21.80;99.90;;;;;;5058198;28;20187;-83
2021/08/24 08:52:02;;;;;;;11.63;5.75;;;21.70;99.90;;;;;;5072352;28;20054;-84
2021/08/24 08:54:40;;;;;;;10.88;5.90;;;21.60;99.90;;;;;;5071846;28;20013;-85
2021/08/24 08:57:19;;;;;;;8.88;6.00;;;21.40;99.90;;;;;;5052550;28;20100;-86
2021/08/24 08:59:52;;;;;;;12.63;6.47;;;21.50;99.90;;;;;;5053836;28;20024;-82
2021/08/24 09:02:43;;;;;;;9.23;5.32;;;21.50;99.90;;;;;;5063512;28;20021;-82
2021/08/24 09:05:10;;;;;;;6.28;5.07;;;21.80;99.90;;;;;;5064365;28;20035;-82
2021/08/24 09:07:49;;;;;;;8.05;5.38;;;22.10;99.90;;;;;;5071479;28;20393;-78
2021/08/24 09:10:33;;;;;;;9.15;5.70;;;22.40;99.90;;;;;;5071518;28;20556;-78
2021/08/24 09:13:26;;;;;;;9.60;6.03;;;22.60;99.90;;;;;;5071917;28;20024;-77
2021/08/24 09:16:03;;;;;;;8.98;5.25;;;22.80;99.90;;;;;;5071354;28;20493;-77
2021/08/24 09:18:47;;;;;;;11.27;5.97;;;23.00;99.90;;;;;;5070994;28;20527;-77
2021/08/24 09:21:29;;;;;;;12.60;6.40;;;23.10;99.90;;;;;;5072570;28;20021;-77
2021/08/24 09:23:56;;;;;;;9.63;5.03;;;23.20;99.90;;;;;;5060206;28;20070;-77
2021/08/24 09:26:50;;;;;;;11.10;5.57;;;23.10;99.90;;;;;;5071280;28;20020;-78
2021/08/24 09:29:18;;;;;;;12.73;5.93;;;23.00;99.90;;;;;;5060408;28;20042;-78
2021/08/24 09:31:45;;;;;;;8.90;4.53;;;22.80;99.90;;;;;;5071806;28;20407;-77
2021/08/24 09:34:19;;;;;;;7.25;5.10;;;22.80;99.90;;;;;;5071637;28;20021;-77
2021/08/24 09:36:44;;;;;;;12.02;5.00;;;23.00;99.90;;;;;;5070647;28;20013;-77
2021/08/24 09:39:12;;;;;;;11.38;5.88;;;23.10;99.90;;;;;;5071625;28;20511;-78
2021/08/24 09:41:40;;;;;;;15.63;5.93;;;22.80;99.90;;;;;;5071384;28;20020;-78
2021/08/24 09:44:26;;;;;;;10.82;6.13;;;22.60;99.90;;;;;;5071042;28;20029;-78
2021/08/24 09:47:14;;;;;;;9.18;4.95;;;22.50;99.90;;;;;;5070655;28;20024;-78
2021/08/24 09:49:42;;;;;;;8.43;5.18;;;22.70;99.90;;;;;;5070741;28;20037;-78
2021/08/24 09:52:24;;;;;;;6.85;4.78;;;23.00;99.90;;;;;;5071793;28;20079;-78
2021/08/24 09:54:54;;;;;;;9.45;5.10;;;23.20;99.90;;;;;;5074406;28;20023;-78
2021/08/24 09:57:33;;;;;;;6.82;5.13;;;23.40;99.90;;;;;;5077001;28;20540;-78
2021/08/24 10:00:06;;;;;;;8.32;5.25;;;23.40;99.90;;;;;;5044119;28;20029;-78
2021/08/24 10:02:46;;;;;;;7.78;5.18;;;23.30;99.90;;;;;;5072295;28;20021;-78
2021/08/24 10:05:31;;;;;;;9.15;5.80;;;23.20;99.90;;;;;;5062985;28;20036;-77
2021/08/24 10:08:01;;;;;;;10.88;4.93;;;23.30;99.90;;;;;;5051965;28;20567;-78
2021/08/24 10:10:26;;;;;;;5.90;4.50;;;23.50;99.90;;;;;;5054837;28;20336;-78
2021/08/24 10:12:53;;;;;;;8.77;5.13;;;23.40;99.90;;;;;;5071645;28;20015;-78
2021/08/24 10:15:22;;;;;;;6.85;4.82;;;23.40;99.90;;;;;;5058458;28;20033;-78
2021/08/24 10:17:55;;;;;;;14.43;6.18;;;23.40;99.90;;;;;;5071515;28;20020;-78
2021/08/24 10:20:30;;;;;;;8.07;4.72;;;23.60;99.90;;;;;;5070729;28;20029;-78
2021/08/24 10:22:57;;;;;;;7.78;4.47;;;23.90;99.90;;;;;;5059264;28;20049;-78
2021/08/24 10:25:40;;;;;;;20.75;7.25;;;23.90;99.90;;;;;;5070440;28;20107;-79
2021/08/24 10:28:13;;;;;;;22.80;8.05;;;24.10;99.90;;;;;;5073368;28;20048;-78
2021/08/24 10:30:48;;;;;;;15.73;6.47;;;24.50;99.90;;;;;;5070213;28;20086;-78
2021/08/24 10:33:38;;;;;;;53.78;26.02;;;24.70;99.90;;;;;;5069951;28;20088;-78
2021/08/24 10:36:20;;;;;;;29.70;16.73;;;24.80;99.90;;;;;;5039697;28;20500;-78
2021/08/24 10:38:55;;;;;;;23.00;14.05;;;24.90;99.90;;;;;;5052413;28;20024;-78
2021/08/24 10:41:35;;;;;;;10.70;5.13;;;24.80;99.90;;;;;;5053097;28;20132;-78
2021/08/24 10:44:23;;;;;;;6.47;4.80;;;24.60;99.90;;;;;;5066598;28;20025;-78
2021/08/24 10:47:00;;;;;;;5.38;4.25;;;24.30;99.90;;;;;;5056553;28;20025;-78
2021/08/24 10:49:26;;;;;;;7.82;5.30;;;24.40;99.90;;;;;;5070392;28;20051;-78
2021/08/24 10:52:03;;;;;;;8.05;4.75;;;24.40;99.90;;;;;;5069775;28;20439;-78
2021/08/24 10:55:09;;;;;;;8.23;4.75;;;24.30;99.90;;;;;;5058905;28;20384;-79
2021/08/24 10:57:58;;;;;;;5.68;4.97;;;24.60;99.90;;;;;;5010109;28;20033;-79
2021/08/24 11:00:35;;;;;;;8.38;4.90;;;24.50;99.90;;;;;;5069817;28;20195;-78
2021/08/24 11:03:18;;;;;;;8.65;4.57;;;24.50;99.90;;;;;;5070972;28;20021;-78
2021/08/24 11:06:01;;;;;;;8.40;4.35;;;24.50;99.90;;;;;;5071306;28;20116;-78
2021/08/24 11:08:47;;;;;;;5.53;4.25;;;24.40;99.90;;;;;;5070576;28;20406;-78
2021/08/24 11:11:24;;;;;;;7.72;4.53;;;24.20;99.90;;;;;;5067035;28;20045;-79
2021/08/24 11:13:49;;;;;;;8.27;5.93;;;24.20;99.90;;;;;;5069468;28;20059;-79
2021/08/24 11:16:18;;;;;;;9.60;5.20;;;24.20;99.90;;;;;;5072146;28;20028;-78
2021/08/24 11:19:06;;;;;;;6.85;4.80;;;24.30;99.90;;;;;;5069653;28;20048;-78
2021/08/24 11:21:46;;;;;;;7.70;4.10;;;24.90;99.90;;;;;;5069480;28;20044;-78
2021/08/24 11:24:42;;;;;;;10.82;4.97;;;25.50;99.90;;;;;;5068943;28;20512;-78
2021/08/24 11:27:35;;;;;;;11.35;4.95;;;25.90;99.90;;;;;;5066238;28;20398;-80
2021/08/24 11:30:13;;;;;;;6.68;4.50;;;25.80;99.90;;;;;;5057645;28;20044;-78
2021/08/24 11:32:43;;;;;;;6.13;4.40;;;25.50;99.90;;;;;;5068441;28;20032;-78
2021/08/24 11:35:15;;;;;;;8.45;4.95;;;25.30;99.90;;;;;;5069400;28;20035;-78
2021/08/24 11:37:49;;;;;;;7.78;4.70;;;25.20;99.90;;;;;;5069270;28;20032;-78
2021/08/24 11:40:26;;;;;;;6.10;5.00;;;25.20;99.90;;;;;;5059395;28;20017;-78
2021/08/24 11:42:57;;;;;;;5.10;4.38;;;25.10;99.90;;;;;;5068856;28;20435;-78
2021/08/24 11:45:30;;;;;;;8.55;4.93;;;25.20;99.90;;;;;;5069391;28;20048;-78
2021/08/24 11:48:27;;;;;;;7.57;5.00;;;25.70;99.90;;;;;;5050666;28;20039;-78
2021/08/24 11:51:05;;;;;;;7.90;5.50;;;26.10;99.90;;;;;;5067042;28;20123;-78
2021/08/24 11:54:02;;;;;;;7.10;4.70;;;26.20;99.90;;;;;;5072208;28;20062;-78
2021/08/24 11:56:59;;;;;;;8.52;4.75;;;26.50;99.90;;;;;;5036905;28;20028;-78
2021/08/24 11:59:40;;;;;;;7.30;5.43;;;26.70;99.50;;;;;;5072110;28;20404;-78
2021/08/24 12:02:14;;;;;;;8.98;5.05;;;26.40;99.50;;;;;;5072771;28;20488;-78
2021/08/24 12:04:41;;;;;;;7.32;5.13;;;26.10;99.60;;;;;;5074578;28;20464;-79
2021/08/24 12:07:16;;;;;;;6.57;5.10;;;26.00;99.90;;;;;;5073390;28;20027;-78
2021/08/24 12:09:46;;;;;;;8.13;4.47;;;26.00;99.80;;;;;;5073020;28;20025;-78
2021/08/24 12:12:49;;;;;;;7.18;4.63;;;26.00;99.70;;;;;;5072318;28;20025;-78
2021/08/24 12:15:44;;;;;;;6.63;4.70;;;26.10;99.20;;;;;;5072959;28;20031;-78
2021/08/24 12:18:18;;;;;;;6.00;4.35;;;26.40;98.60;;;;;;5055508;28;20037;-79
2021/08/24 12:21:08;;;;;;;9.27;5.70;;;26.40;99.00;;;;;;5040262;28;20515;-78
2021/08/24 12:23:36;;;;;;;9.23;5.47;;;26.30;98.80;;;;;;5014284;28;20329;-78
2021/08/24 12:26:41;;;;;;;10.30;5.25;;;26.50;98.50;;;;;;5071922;28;20025;-79
2021/08/24 12:29:34;;;;;;;8.00;5.50;;;26.60;98.50;;;;;;5071170;28;20119;-78
2021/08/24 12:32:23;;;;;;;11.55;5.15;;;26.50;97.90;;;;;;5072739;28;20036;-78
2021/08/24 12:35:07;;;;;;;9.18;4.95;;;26.40;98.00;;;;;;5024796;28;20543;-78
2021/08/24 12:37:33;;;;;;;8.50;4.55;;;26.30;97.90;;;;;;5075442;28;20090;-78
2021/08/24 12:40:10;;;;;;;7.25;5.30;;;26.10;97.90;;;;;;5071679;28;20476;-78
2021/08/24 12:42:38;;;;;;;7.60;4.88;;;26.00;98.10;;;;;;5071050;28;20052;-78
2021/08/24 12:45:03;;;;;;;6.78;4.80;;;26.30;98.50;;;;;;5062859;28;20119;-78
2021/08/24 12:47:44;;;;;;;10.93;5.05;;;26.60;98.20;;;;;;5071648;28;20540;-79
2021/08/24 12:50:09;;;;;;;8.90;4.65;;;26.80;97.40;;;;;;5071654;28;20079;-78
2021/08/24 12:52:42;;;;;;;8.75;4.68;;;26.80;97.00;;;;;;5073034;28;20033;-78
2021/08/24 12:55:34;;;;;;;8.68;4.97;;;27.10;96.90;;;;;;5071674;28;20021;-79
2021/08/24 12:58:19;;;;;;;6.68;4.85;;;27.30;96.60;;;;;;5073579;28;20084;-79
2021/08/24 13:01:04;;;;;;;6.50;4.40;;;27.60;95.80;;;;;;5057992;28;20071;-78
2021/08/24 13:03:30;;;;;;;9.40;4.55;;;27.90;95.30;;;;;;5057593;28;20021;-78
2021/08/24 13:06:27;;;;;;;6.80;4.10;;;27.70;94.60;;;;;;5071190;28;20380;-78
2021/08/24 13:09:19;;;;;;;6.28;3.78;;;27.60;95.00;;;;;;5060450;28;20028;-78
2021/08/24 13:12:13;;;;;;;7.57;4.40;;;27.70;94.90;;;;;;5069090;28;20157;-78
2021/08/24 13:14:44;;;;;;;6.40;4.03;;;27.80;94.40;;;;;;5060698;28;20479;-78
2021/08/24 13:17:14;;;;;;;7.88;4.22;;;27.70;94.50;;;;;;5052881;28;20674;-78
2021/08/24 13:19:40;;;;;;;6.80;4.20;;;27.60;94.40;;;;;;5070938;28;20021;-79
2021/08/24 13:22:18;;;;;;;7.63;3.65;;;27.90;94.30;;;;;;5070800;28;20480;-78
2021/08/24 13:24:47;;;;;;;4.57;4.07;;;28.00;94.10;;;;;;5071377;28;20469;-78
2021/08/24 13:27:31;;;;;;;5.40;4.03;;;28.10;93.60;;;;;;5071023;28;20017;-78
2021/08/24 13:30:05;;;;;;;5.60;4.43;;;28.30;93.70;;;;;;5070625;28;20070;-78
2021/08/24 13:32:34;;;;;;;6.68;3.70;;;28.60;92.80;;;;;;5070444;28;20016;-78
2021/08/24 13:35:01;;;;;;;8.93;3.95;;;28.90;93.10;;;;;;5070690;28;20031;-78
2021/08/24 13:37:39;;;;;;;11.57;4.38;;;29.00;92.40;;;;;;5070444;28;20017;-78
2021/08/24 13:40:13;;;;;;;7.40;4.20;;;29.40;92.20;;;;;;5070256;28;20033;-78
2021/08/24 13:42:45;;;;;;;5.28;4.07;;;29.50;92.30;;;;;;5070424;28;20130;-78
2021/08/24 13:45:21;;;;;;;9.48;4.50;;;29.60;91.60;;;;;;5070300;28;20037;-78
2021/08/24 13:47:50;;;;;;;9.73;5.15;;;29.40;91.40;;;;;;5070100;28;20500;-78
2021/08/24 13:50:37;;;;;;;5.28;4.40;;;28.80;91.40;;;;;;5070071;28;20036;-78
2021/08/24 13:53:16;;;;;;;8.27;4.82;;;28.60;92.30;;;;;;5070736;28;20399;-78
2021/08/24 13:55:49;;;;;;;5.78;4.10;;;28.80;91.70;;;;;;5072337;28;20029;-78
2021/08/24 13:58:32;;;;;;;9.00;4.05;;;28.60;91.50;;;;;;5073145;28;20031;-79
2021/08/24 14:01:10;;;;;;;4.78;3.85;;;29.00;91.30;;;;;;5070917;28;20086;-78
2021/08/24 14:03:53;;;;;;;8.18;3.75;;;30.00;90.40;;;;;;5052885;28;20480;-78
2021/08/24 14:06:32;;;;;;;4.95;4.00;;;30.40;89.30;;;;;;5070152;28;20024;-79
2021/08/24 14:09:21;;;;;;;4.85;3.80;;;30.20;88.80;;;;;;5070003;28;20056;-79
2021/08/24 14:11:51;;;;;;;4.30;3.75;;;29.70;89.70;;;;;;5069383;28;20487;-79
2021/08/24 14:14:38;;;;;;;4.53;3.67;;;29.60;89.10;;;;;;5069688;28;20024;-80
2021/08/24 14:17:12;;;;;;;4.80;3.35;;;30.40;87.80;;;;;;5069397;28;20025;-79
2021/08/24 14:19:38;;;;;;;4.68;3.72;;;32.50;84.80;;;;;;5069497;28;20028;-78
2021/08/24 14:22:09;;;;;;;8.27;3.85;;;33.60;81.50;;;;;;5069659;28;20025;-79
2021/08/24 14:24:35;;;;;;;5.10;3.45;;;33.20;80.00;;;;;;5069747;28;20108;-79
2021/08/24 14:27:03;;;;;;;5.53;3.80;;;32.80;80.80;;;;;;5069330;28;20099;-79
2021/08/24 14:29:31;;;;;;;8.65;3.25;;;31.70;81.00;;;;;;5069272;28;20048;-78
2021/08/24 14:31:59;;;;;;;4.93;3.60;;;32.10;81.50;;;;;;5068958;28;20028;-79
2021/08/24 14:34:30;;;;;;;4.50;3.72;;;33.40;79.20;;;;;;5058080;28;20024;-79
2021/08/24 14:37:00;;;;;;;3.60;2.90;;;34.70;75.90;;;;;;5066109;28;20024;-79
2021/08/24 14:39:38;;;;;;;7.90;2.80;;;36.30;73.10;;;;;;5072428;28;20016;-79
2021/08/24 14:42:10;;;;;;;6.60;3.38;;;38.10;68.30;;;;;;5074418;28;20024;-79